Time;durP1;ratioP1;P1;durP2;ratioP2;P2;SDS_P1;SDS_P2;PMS_P1;PMS_P2;Temp;Humidity;BMP_temperature;BMP_pressure;BME280_temperature;BME280_humidity;BME280_pressure;Samples;Min_cycle;Max_cycle;Signal;HPM_P1;HPM_P2
2021/03/17 00:00:59;;;;;;;2.40;1.30;;;5.10;90.40;;;;;;2073449;28;20045;-83
2021/03/17 00:01:59;;;;;;;1.88;1.40;;;5.10;90.40;;;;;;2073475;28;20041;-84
2021/03/17 00:03:00;;;;;;;2.03;1.25;;;5.10;90.40;;;;;;2073067;28;20054;-84
2021/03/17 00:04:01;;;;;;;2.10;1.40;;;5.10;90.40;;;;;;2065394;28;20373;-84
2021/03/17 00:05:02;;;;;;;1.90;1.10;;;5.10;90.40;;;;;;2073410;28;20022;-83
2021/03/17 00:06:03;;;;;;;2.60;1.45;;;5.10;90.60;;;;;;2057368;28;20090;-84
2021/03/17 00:07:04;;;;;;;1.65;1.20;;;5.10;90.40;;;;;;2057457;28;20054;-83
2021/03/17 00:08:05;;;;;;;2.13;1.30;;;5.10;90.40;;;;;;2079479;28;20065;-83
2021/03/17 00:09:06;;;;;;;2.05;1.10;;;5.00;90.40;;;;;;2081681;28;20032;-84
2021/03/17 00:10:07;;;;;;;3.08;1.27;;;5.00;90.40;;;;;;2080822;28;20080;-84
2021/03/17 00:11:08;;;;;;;2.10;1.33;;;5.00;90.50;;;;;;2073313;28;20037;-84
2021/03/17 00:12:09;;;;;;;1.83;1.20;;;5.00;90.40;;;;;;2064254;28;20042;-84
2021/03/17 00:13:10;;;;;;;1.77;1.20;;;5.00;90.50;;;;;;2057145;28;20135;-84
2021/03/17 00:14:10;;;;;;;1.92;1.35;;;5.00;90.50;;;;;;2057008;28;20140;-82
2021/03/17 00:15:13;;;;;;;1.73;1.20;;;5.00;90.50;;;;;;2066953;28;20054;-82
2021/03/17 00:16:14;;;;;;;1.92;1.33;;;5.00;90.50;;;;;;2076011;28;20030;-84
2021/03/17 00:17:15;;;;;;;2.30;1.30;;;4.90;90.50;;;;;;2073607;28;20038;-83
2021/03/17 00:18:15;;;;;;;2.15;1.40;;;4.90;90.50;;;;;;2065117;28;20027;-84
2021/03/17 00:19:16;;;;;;;1.70;1.20;;;4.90;90.50;;;;;;2057395;28;20449;-84
2021/03/17 00:20:17;;;;;;;1.83;1.23;;;4.90;90.50;;;;;;2064991;28;20038;-83
2021/03/17 00:21:18;;;;;;;1.98;1.30;;;4.90;90.50;;;;;;2068811;28;20038;-84
2021/03/17 00:22:19;;;;;;;2.83;1.40;;;4.90;90.50;;;;;;2065431;28;20125;-84
2021/03/17 00:23:20;;;;;;;1.85;1.30;;;4.90;90.50;;;;;;2057355;28;20027;-84
2021/03/17 00:24:20;;;;;;;2.00;1.30;;;4.90;90.60;;;;;;2066183;28;20023;-84
2021/03/17 00:25:27;;;;;;;2.00;1.40;;;4.80;90.60;;;;;;2065986;28;20081;-84
2021/03/17 00:26:27;;;;;;;2.33;1.40;;;4.80;90.60;;;;;;2074538;28;20034;-84
2021/03/17 00:27:28;;;;;;;2.47;1.65;;;4.80;90.60;;;;;;2078976;28;20490;-84
2021/03/17 00:28:29;;;;;;;2.20;1.40;;;4.80;90.60;;;;;;2073408;28;20022;-84
2021/03/17 00:29:30;;;;;;;2.28;1.50;;;4.80;90.90;;;;;;2060892;28;20440;-84
2021/03/17 00:30:32;;;;;;;2.10;1.40;;;4.80;90.60;;;;;;2064854;28;20113;-84
2021/03/17 00:31:33;;;;;;;2.55;1.40;;;4.80;90.60;;;;;;2072632;28;20542;-84
2021/03/17 00:32:33;;;;;;;2.13;1.30;;;4.90;90.60;;;;;;2065027;28;20058;-84
2021/03/17 00:33:34;;;;;;;2.10;1.30;;;4.90;90.60;;;;;;2072612;28;20064;-84
2021/03/17 00:34:35;;;;;;;2.67;1.48;;;4.90;90.60;;;;;;2070509;28;20034;-84
2021/03/17 00:35:36;;;;;;;2.35;1.40;;;4.90;90.60;;;;;;2065033;28;20023;-84
2021/03/17 00:36:37;;;;;;;2.28;1.50;;;4.90;90.50;;;;;;2065146;28;20503;-84
2021/03/17 00:37:37;;;;;;;2.03;1.38;;;4.90;90.50;;;;;;2058359;28;20517;-84
2021/03/17 00:38:38;;;;;;;2.30;1.50;;;4.90;90.50;;;;;;2065415;28;20077;-84
2021/03/17 00:39:39;;;;;;;2.38;1.38;;;4.90;90.50;;;;;;2065315;28;20037;-84
2021/03/17 00:40:39;;;;;;;2.45;1.55;;;4.90;90.50;;;;;;2065587;28;20022;-83
2021/03/17 00:41:40;;;;;;;2.17;1.50;;;4.90;90.50;;;;;;2057217;28;20035;-84
2021/03/17 00:42:41;;;;;;;2.83;1.45;;;4.90;90.50;;;;;;2061221;28;20038;-84
2021/03/17 00:43:41;;;;;;;2.47;1.52;;;4.90;90.50;;;;;;2073175;28;20078;-84
2021/03/17 00:44:43;;;;;;;2.60;1.50;;;4.90;90.50;;;;;;2073454;28;20026;-84
2021/03/17 00:45:43;;;;;;;2.45;1.50;;;4.90;90.50;;;;;;2073253;28;20050;-83
2021/03/17 00:46:44;;;;;;;2.47;1.50;;;4.90;90.50;;;;;;2070458;28;20030;-84
2021/03/17 00:47:44;;;;;;;2.55;1.42;;;4.90;90.50;;;;;;2073307;28;20022;-84
2021/03/17 00:48:45;;;;;;;2.50;1.45;;;4.90;90.50;;;;;;2073129;28;20038;-84
2021/03/17 00:49:46;;;;;;;2.40;1.50;;;4.90;90.50;;;;;;2073417;28;20022;-85
2021/03/17 00:50:46;;;;;;;2.05;1.33;;;4.90;90.50;;;;;;2064170;28;20026;-84
2021/03/17 00:51:47;;;;;;;2.47;1.67;;;4.90;90.50;;;;;;2064691;28;20058;-84
2021/03/17 00:52:48;;;;;;;4.20;2.30;;;4.90;90.80;;;;;;2065275;28;20500;-84
2021/03/17 00:53:49;;;;;;;2.40;1.60;;;4.90;90.50;;;;;;2058974;28;20117;-84
2021/03/17 00:54:50;;;;;;;2.42;1.65;;;4.90;90.50;;;;;;2064565;28;20026;-84
2021/03/17 00:55:51;;;;;;;2.42;1.67;;;4.90;90.50;;;;;;2069455;28;20057;-84
2021/03/17 00:56:52;;;;;;;2.65;1.60;;;4.90;90.80;;;;;;2066182;28;20465;-84
2021/03/17 00:57:52;;;;;;;2.15;1.50;;;4.90;90.50;;;;;;2056558;28;20034;-84
2021/03/17 00:58:53;;;;;;;2.60;1.58;;;5.00;90.50;;;;;;2065222;28;20493;-83
2021/03/17 00:59:54;;;;;;;2.65;1.70;;;5.00;90.50;;;;;;2080585;28;20064;-84
2021/03/17 01:00:54;;;;;;;2.60;1.60;;;4.90;90.50;;;;;;2078070;28;20033;-84
2021/03/17 01:01:55;;;;;;;2.60;1.70;;;5.00;90.50;;;;;;2070138;28;20034;-83
2021/03/17 01:02:55;;;;;;;2.88;1.65;;;5.00;90.50;;;;;;2064329;28;20049;-84
2021/03/17 01:03:56;;;;;;;2.30;1.52;;;4.90;90.50;;;;;;2057111;28;20030;-83
2021/03/17 01:04:57;;;;;;;2.95;1.80;;;4.90;90.40;;;;;;2065226;28;20424;-83
2021/03/17 01:05:57;;;;;;;2.60;1.60;;;4.90;90.40;;;;;;2048282;28;20043;-84
2021/03/17 01:06:58;;;;;;;2.10;1.42;;;5.00;90.50;;;;;;2059239;28;20041;-83
2021/03/17 01:07:59;;;;;;;2.80;1.58;;;4.90;90.50;;;;;;2056059;28;20130;-84
2021/03/17 01:09:00;;;;;;;2.45;1.60;;;4.90;90.50;;;;;;2057305;28;20039;-84
2021/03/17 01:10:01;;;;;;;2.90;1.88;;;4.90;90.50;;;;;;2072991;28;20392;-84
2021/03/17 01:11:01;;;;;;;2.88;1.60;;;4.90;90.50;;;;;;2070635;28;20044;-83
2021/03/17 01:12:02;;;;;;;2.45;1.50;;;5.00;90.50;;;;;;2063700;28;20022;-83
2021/03/17 01:13:04;;;;;;;2.90;1.73;;;5.00;90.50;;;;;;2070622;28;20033;-83
2021/03/17 01:14:05;;;;;;;2.55;1.73;;;5.00;90.50;;;;;;2081233;28;20029;-83
2021/03/17 01:15:06;;;;;;;2.78;1.75;;;5.00;90.40;;;;;;2064551;28;20056;-84
2021/03/17 01:16:07;;;;;;;2.50;1.60;;;5.00;90.40;;;;;;2064340;28;20030;-84
2021/03/17 01:17:08;;;;;;;3.38;1.77;;;5.00;90.40;;;;;;2056319;28;20544;-84
2021/03/17 01:18:08;;;;;;;2.53;1.70;;;5.00;90.40;;;;;;2056610;28;20054;-84
2021/03/17 01:19:09;;;;;;;2.75;1.80;;;5.00;90.40;;;;;;2049097;28;20486;-84
2021/03/17 01:20:11;;;;;;;2.50;1.60;;;5.00;90.40;;;;;;2064905;28;20022;-83
2021/03/17 01:21:11;;;;;;;2.92;1.60;;;5.00;90.40;;;;;;2071519;28;20037;-84
2021/03/17 01:22:12;;;;;;;2.33;1.60;;;5.00;90.40;;;;;;2064945;28;20065;-84
2021/03/17 01:23:13;;;;;;;2.60;1.75;;;5.00;90.40;;;;;;2058385;28;20113;-83
2021/03/17 01:24:14;;;;;;;2.78;1.60;;;5.00;90.40;;;;;;2065907;28;20036;-84
2021/03/17 01:25:31;;;;;;;2.50;1.63;;;5.00;90.40;;;;;;2057015;28;20039;-83
2021/03/17 01:26:32;;;;;;;2.33;1.52;;;5.00;90.40;;;;;;2062078;28;20030;-83
2021/03/17 01:27:32;;;;;;;3.05;1.73;;;5.00;90.40;;;;;;2076156;28;20032;-83
2021/03/17 01:28:33;;;;;;;2.35;1.52;;;5.00;90.40;;;;;;2079480;28;20038;-83
2021/03/17 01:29:34;;;;;;;1.90;1.40;;;5.00;90.70;;;;;;2081334;28;20577;-84
2021/03/17 01:30:41;;;;;;;2.92;1.75;;;5.00;90.40;;;;;;2080754;28;20075;-84
2021/03/17 01:31:42;;;;;;;2.65;1.85;;;5.00;90.40;;;;;;2080676;28;20022;-83
2021/03/17 01:32:42;;;;;;;2.40;1.40;;;5.00;90.40;;;;;;2080778;28;20038;-82
2021/03/17 01:33:43;;;;;;;2.67;1.83;;;5.00;90.40;;;;;;2081621;28;20030;-83
2021/03/17 01:34:43;;;;;;;2.78;1.70;;;5.00;90.40;;;;;;2072941;28;20117;-85
2021/03/17 01:35:47;;;;;;;2.10;1.42;;;5.00;90.40;;;;;;2056547;28;20461;-83
2021/03/17 01:36:47;;;;;;;2.83;1.50;;;5.00;90.40;;;;;;2064607;28;20038;-83
2021/03/17 01:37:48;;;;;;;2.72;1.60;;;5.00;90.40;;;;;;2056802;28;20027;-84
2021/03/17 01:38:49;;;;;;;2.63;1.70;;;5.00;90.40;;;;;;2055918;28;20401;-84
2021/03/17 01:39:49;;;;;;;2.72;1.65;;;5.00;90.40;;;;;;2056569;28;20453;-83
2021/03/17 01:40:51;;;;;;;2.28;1.48;;;5.00;90.40;;;;;;2057206;28;20031;-84
2021/03/17 01:41:52;;;;;;;2.38;1.60;;;5.00;90.50;;;;;;2060317;28;20096;-84
2021/03/17 01:42:54;;;;;;;2.83;1.52;;;5.00;90.50;;;;;;2056833;28;20473;-83
2021/03/17 01:43:55;;;;;;;2.08;1.40;;;4.90;90.50;;;;;;2059670;28;20030;-83
2021/03/17 01:44:55;;;;;;;3.17;1.80;;;4.90;90.50;;;;;;2072571;28;20524;-83
2021/03/17 01:45:56;;;;;;;2.70;1.70;;;4.90;90.50;;;;;;2070660;28;20431;-83
2021/03/17 01:46:57;;;;;;;2.45;1.70;;;4.90;90.50;;;;;;2071960;28;20026;-83
2021/03/17 01:47:58;;;;;;;2.03;1.48;;;4.90;90.80;;;;;;2073763;28;20428;-83
2021/03/17 01:48:58;;;;;;;2.55;1.75;;;4.90;90.50;;;;;;2080882;28;20475;-83
2021/03/17 01:49:59;;;;;;;2.33;1.50;;;4.90;90.50;;;;;;2064828;28;20110;-82
2021/03/17 01:51:00;;;;;;;2.42;1.60;;;4.90;90.50;;;;;;2045372;28;20034;-83
2021/03/17 01:52:01;;;;;;;2.30;1.63;;;4.90;90.50;;;;;;2076928;28;20049;-83
2021/03/17 01:53:10;;;;;;;2.83;1.90;;;4.90;90.50;;;;;;2072965;28;20030;-83
2021/03/17 01:54:11;;;;;;;2.30;1.48;;;4.90;90.50;;;;;;2066264;28;20475;-83
2021/03/17 01:55:12;;;;;;;2.00;1.40;;;4.90;90.80;;;;;;2078151;28;20024;-83
2021/03/17 01:56:13;;;;;;;2.60;1.60;;;4.90;90.50;;;;;;2067530;28;20042;-83
2021/03/17 01:57:14;;;;;;;2.28;1.50;;;4.90;90.50;;;;;;2056669;28;20114;-83
2021/03/17 01:58:17;;;;;;;2.35;1.60;;;5.00;90.60;;;;;;2056740;28;20026;-83
2021/03/17 01:59:19;;;;;;;2.22;1.50;;;4.90;90.50;;;;;;2065109;28;20018;-83
2021/03/17 02:00:21;;;;;;;2.10;1.40;;;5.00;90.60;;;;;;2074936;28;20109;-84
2021/03/17 02:01:21;;;;;;;3.53;1.45;;;5.00;90.60;;;;;;2080294;28;20026;-84
2021/03/17 02:02:23;;;;;;;2.47;1.58;;;5.00;90.60;;;;;;2067811;28;20467;-83
2021/03/17 02:03:25;;;;;;;2.50;1.42;;;5.00;90.80;;;;;;2064468;28;20081;-84
2021/03/17 02:04:26;;;;;;;2.30;1.58;;;5.00;90.60;;;;;;2072827;28;20022;-84
2021/03/17 02:05:31;;;;;;;2.53;1.60;;;5.00;90.50;;;;;;2073755;28;20061;-83
2021/03/17 02:06:31;;;;;;;2.28;1.52;;;5.00;90.50;;;;;;2072872;28;20026;-83
2021/03/17 02:07:32;;;;;;;2.42;1.70;;;5.00;90.50;;;;;;2072988;28;20037;-84
2021/03/17 02:08:38;;;;;;;2.50;1.63;;;5.00;90.50;;;;;;2067750;28;20042;-84
2021/03/17 02:09:40;;;;;;;2.85;1.58;;;5.00;90.60;;;;;;2066396;28;20496;-83
2021/03/17 02:10:41;;;;;;;2.45;1.65;;;5.00;90.50;;;;;;2076544;28;20124;-84
2021/03/17 02:11:48;;;;;;;1.80;1.50;;;5.00;90.60;;;;;;2080648;28;20075;-83
2021/03/17 02:13:23;;;;;;;2.47;1.60;;;5.00;90.50;;;;;;2078834;28;20049;-84
2021/03/17 02:15:03;;;;;;;2.95;2.00;;;5.00;90.50;;;;;;2071715;28;20029;-84
2021/03/17 02:16:22;;;;;;;2.45;1.70;;;5.00;90.50;;;;;;2044854;28;20036;-84
2021/03/17 02:17:26;;;;;;;2.05;1.45;;;5.00;90.40;;;;;;2074397;28;20033;-84
2021/03/17 02:18:39;;;;;;;2.45;1.77;;;5.00;90.40;;;;;;2066328;28;20053;-83
2021/03/17 02:19:42;;;;;;;2.90;1.50;;;5.00;90.50;;;;;;2067608;28;20037;-83
2021/03/17 02:21:04;;;;;;;2.45;1.70;;;5.00;90.40;;;;;;2071821;28;20026;-83
2021/03/17 02:22:29;;;;;;;2.92;1.80;;;5.00;90.50;;;;;;2074594;28;20199;-84
2021/03/17 02:24:04;;;;;;;3.15;2.00;;;5.00;90.50;;;;;;2080833;28;20030;-84
2021/03/17 02:25:10;;;;;;;2.50;1.63;;;5.00;90.40;;;;;;2080928;28;20352;-84
2021/03/17 02:26:11;;;;;;;2.90;1.88;;;5.00;90.40;;;;;;2067426;28;20026;-83
2021/03/17 02:27:33;;;;;;;3.75;2.00;;;5.00;90.40;;;;;;2071642;28;20053;-84
2021/03/17 02:28:59;;;;;;;2.95;1.90;;;5.00;90.50;;;;;;2078228;28;20034;-83
2021/03/17 02:30:37;;;;;;;2.67;1.80;;;5.00;90.50;;;;;;2073308;28;20065;-83
2021/03/17 02:32:08;;;;;;;2.90;1.90;;;5.00;90.50;;;;;;2073303;28;20082;-83
2021/03/17 02:33:38;;;;;;;2.58;1.92;;;5.00;90.40;;;;;;2050820;28;20038;-84
2021/03/17 02:34:44;;;;;;;3.42;1.90;;;5.00;90.40;;;;;;2063991;28;20085;-83
2021/03/17 02:35:52;;;;;;;3.22;1.90;;;5.00;90.40;;;;;;2072747;28;20030;-83
2021/03/17 02:36:58;;;;;;;2.75;1.98;;;5.00;90.70;;;;;;2078534;28;20026;-83
2021/03/17 02:38:04;;;;;;;2.50;1.83;;;5.00;90.50;;;;;;2071107;28;20033;-84
2021/03/17 02:39:08;;;;;;;2.22;1.67;;;5.00;90.50;;;;;;2073291;28;20056;-84
2021/03/17 02:40:15;;;;;;;2.65;1.90;;;5.00;90.60;;;;;;2080171;28;20022;-83
2021/03/17 02:41:22;;;;;;;2.65;1.90;;;5.00;90.60;;;;;;2080369;28;20064;-84
2021/03/17 02:42:36;;;;;;;3.75;2.25;;;5.00;90.60;;;;;;2080640;28;20101;-84
2021/03/17 02:43:42;;;;;;;2.95;2.03;;;5.00;90.60;;;;;;2073021;28;20100;-83
2021/03/17 02:44:48;;;;;;;2.63;1.92;;;5.00;90.90;;;;;;2078654;28;20144;-83
2021/03/17 02:45:55;;;;;;;2.78;2.08;;;5.10;90.60;;;;;;2078667;28;20053;-83
2021/03/17 02:46:59;;;;;;;3.22;2.28;;;5.00;90.60;;;;;;2071270;28;20400;-83
2021/03/17 02:48:17;;;;;;;2.83;2.00;;;5.00;90.60;;;;;;2062975;28;20025;-83
2021/03/17 02:49:25;;;;;;;3.15;2.20;;;5.10;90.60;;;;;;2076157;28;20495;-84
2021/03/17 02:50:29;;;;;;;2.80;2.00;;;5.10;90.60;;;;;;2080641;28;20021;-83
2021/03/17 02:51:41;;;;;;;2.90;2.10;;;5.10;90.70;;;;;;2079152;28;20029;-83
2021/03/17 02:52:45;;;;;;;4.00;2.38;;;5.10;90.70;;;;;;2074144;28;20122;-83
2021/03/17 02:53:47;;;;;;;3.10;2.20;;;5.10;90.70;;;;;;2077794;28;20068;-83
2021/03/17 02:54:49;;;;;;;4.03;2.28;;;5.10;90.70;;;;;;2074566;28;20503;-83
2021/03/17 02:55:58;;;;;;;3.13;2.05;;;5.10;90.70;;;;;;2070603;28;20053;-83
2021/03/17 02:57:09;;;;;;;3.30;2.25;;;5.10;90.70;;;;;;2069902;28;20384;-83
2021/03/17 02:58:11;;;;;;;3.08;2.10;;;5.10;90.70;;;;;;2060186;28;20117;-83
2021/03/17 02:59:16;;;;;;;3.30;2.10;;;5.10;90.70;;;;;;2072430;28;20026;-83
2021/03/17 03:00:17;;;;;;;3.33;2.40;;;5.10;90.70;;;;;;2075296;28;20488;-84
2021/03/17 03:01:18;;;;;;;3.30;2.38;;;5.20;90.70;;;;;;2080062;28;20092;-83
2021/03/17 03:02:21;;;;;;;3.03;2.20;;;5.20;90.70;;;;;;2079874;28;20025;-83
2021/03/17 03:03:27;;;;;;;3.50;2.35;;;5.20;90.70;;;;;;2080629;28;20072;-84
2021/03/17 03:04:29;;;;;;;3.30;2.15;;;5.20;91.00;;;;;;2077279;28;20048;-84
2021/03/17 03:05:31;;;;;;;2.80;2.10;;;5.20;90.70;;;;;;2063696;28;20117;-83
2021/03/17 03:06:33;;;;;;;3.63;2.40;;;5.20;90.80;;;;;;2056267;28;20509;-83
2021/03/17 03:07:34;;;;;;;3.65;2.42;;;5.20;90.70;;;;;;2048593;28;20034;-83
2021/03/17 03:08:38;;;;;;;2.80;1.90;;;5.20;90.70;;;;;;2061587;28;20451;-83
2021/03/17 03:09:39;;;;;;;2.88;2.00;;;5.20;90.80;;;;;;2072904;28;20018;-83
2021/03/17 03:10:41;;;;;;;2.97;2.15;;;5.20;90.80;;;;;;2068335;28;20061;-84
2021/03/17 03:11:42;;;;;;;2.70;1.95;;;5.20;90.80;;;;;;2064258;28;20022;-84
2021/03/17 03:12:43;;;;;;;2.88;2.13;;;5.20;90.80;;;;;;2057012;28;20117;-83
2021/03/17 03:13:44;;;;;;;2.70;2.10;;;5.20;90.80;;;;;;2064145;28;20026;-83
2021/03/17 03:14:46;;;;;;;2.83;2.10;;;5.20;90.90;;;;;;2061665;28;20100;-83
2021/03/17 03:15:47;;;;;;;2.83;2.20;;;5.20;90.80;;;;;;2072423;28;20534;-83
2021/03/17 03:16:49;;;;;;;2.47;2.00;;;5.20;90.80;;;;;;2063887;28;20035;-83
2021/03/17 03:17:51;;;;;;;3.13;2.00;;;5.20;90.80;;;;;;2066740;28;20034;-83
2021/03/17 03:18:52;;;;;;;2.70;1.90;;;5.20;90.90;;;;;;2071560;28;20080;-83
2021/03/17 03:19:55;;;;;;;2.80;1.92;;;5.20;90.90;;;;;;2064677;28;20126;-83
2021/03/17 03:20:56;;;;;;;2.83;2.00;;;5.20;91.10;;;;;;2072139;28;20372;-82
2021/03/17 03:21:58;;;;;;;2.42;1.90;;;5.20;90.90;;;;;;2072176;28;20037;-83
2021/03/17 03:22:59;;;;;;;2.88;2.00;;;5.20;90.90;;;;;;2064092;28;20712;-83
2021/03/17 03:24:01;;;;;;;2.47;1.80;;;5.20;90.90;;;;;;2055777;28;20026;-83
2021/03/17 03:25:03;;;;;;;2.47;1.85;;;5.20;91.20;;;;;;2053908;28;20019;-83
2021/03/17 03:26:04;;;;;;;2.20;1.70;;;5.20;90.90;;;;;;2064838;28;20034;-83
2021/03/17 03:27:05;;;;;;;2.20;1.70;;;5.20;90.90;;;;;;2073583;28;20025;-83
2021/03/17 03:28:12;;;;;;;2.45;1.80;;;5.20;90.90;;;;;;2065580;28;20034;-83
2021/03/17 03:29:13;;;;;;;2.50;1.80;;;5.20;90.90;;;;;;2065903;28;20038;-83
2021/03/17 03:30:34;;;;;;;2.58;1.77;;;5.20;90.90;;;;;;2066798;28;20031;-83
2021/03/17 03:31:35;;;;;;;2.85;1.95;;;5.20;90.90;;;;;;2081682;28;20034;-84
2021/03/17 03:32:36;;;;;;;2.47;1.77;;;5.30;90.90;;;;;;2073528;28;20032;-83
2021/03/17 03:33:36;;;;;;;2.72;1.90;;;5.30;90.90;;;;;;2073791;28;20460;-84
2021/03/17 03:34:37;;;;;;;2.50;1.80;;;5.20;90.90;;;;;;2082050;28;20029;-84
2021/03/17 03:35:39;;;;;;;2.78;1.70;;;5.30;90.90;;;;;;2073887;28;20033;-84
2021/03/17 03:36:40;;;;;;;2.15;1.67;;;5.30;90.90;;;;;;2074098;28;20022;-83
2021/03/17 03:37:40;;;;;;;2.10;1.60;;;5.30;90.90;;;;;;2073984;28;20033;-84
2021/03/17 03:38:41;;;;;;;2.78;1.77;;;5.30;90.90;;;;;;2065361;28;20508;-84
2021/03/17 03:39:42;;;;;;;1.92;1.45;;;5.20;90.90;;;;;;2064861;28;20035;-84
2021/03/17 03:40:42;;;;;;;2.13;1.70;;;5.30;91.00;;;;;;2063918;28;20041;-84
2021/03/17 03:41:43;;;;;;;2.42;1.80;;;5.30;91.00;;;;;;2068942;28;20033;-83
2021/03/17 03:42:45;;;;;;;2.13;1.67;;;5.30;91.00;;;;;;2057152;28;20061;-83
2021/03/17 03:43:45;;;;;;;2.20;1.70;;;5.20;90.90;;;;;;2049459;28;20047;-84
2021/03/17 03:44:46;;;;;;;2.53;1.90;;;5.20;91.00;;;;;;2049676;28;20039;-84
2021/03/17 03:45:47;;;;;;;2.08;1.67;;;5.20;91.00;;;;;;2049351;28;20038;-84
2021/03/17 03:46:47;;;;;;;2.85;1.95;;;5.20;91.00;;;;;;2066661;28;20125;-83
2021/03/17 03:47:48;;;;;;;2.30;1.70;;;5.20;91.00;;;;;;2057677;28;20023;-83
2021/03/17 03:48:49;;;;;;;2.47;1.85;;;5.20;91.00;;;;;;2057228;28;20031;-84
2021/03/17 03:49:50;;;;;;;2.83;1.63;;;5.20;91.10;;;;;;2082076;28;20030;-83
2021/03/17 03:50:51;;;;;;;2.00;1.50;;;5.20;91.10;;;;;;2064876;28;20484;-84
2021/03/17 03:52:16;;;;;;;1.88;1.48;;;5.20;91.10;;;;;;2064707;28;20037;-84
2021/03/17 03:53:32;;;;;;;2.13;1.63;;;5.20;91.10;;;;;;2068733;28;20026;-84
2021/03/17 03:54:48;;;;;;;2.47;1.92;;;5.20;91.10;;;;;;2067662;28;20468;-84
2021/03/17 03:56:10;;;;;;;2.05;1.45;;;5.30;91.10;;;;;;2080285;28;20036;-84
2021/03/17 03:57:17;;;;;;;2.42;1.50;;;5.30;91.10;;;;;;2074377;28;20029;-83
2021/03/17 03:58:41;;;;;;;1.60;1.20;;;5.30;91.00;;;;;;2066567;28;20034;-84
2021/03/17 03:59:47;;;;;;;2.10;1.50;;;5.30;91.00;;;;;;2076706;28;20029;-84
2021/03/17 04:00:48;;;;;;;1.88;1.40;;;5.20;91.00;;;;;;2078861;28;20395;-84
2021/03/17 04:01:58;;;;;;;1.98;1.35;;;5.30;91.00;;;;;;2073211;28;20076;-83
2021/03/17 04:03:01;;;;;;;1.88;1.40;;;5.30;91.00;;;;;;2074447;28;20026;-84
2021/03/17 04:04:09;;;;;;;2.28;1.60;;;5.30;91.00;;;;;;2082259;28;20496;-83
2021/03/17 04:05:12;;;;;;;2.88;1.50;;;5.30;91.00;;;;;;2082641;28;20026;-84
2021/03/17 04:06:15;;;;;;;1.92;1.40;;;5.30;91.00;;;;;;2073662;28;20447;-84
2021/03/17 04:07:19;;;;;;;2.05;1.30;;;5.30;91.00;;;;;;2073438;28;20520;-83
2021/03/17 04:08:21;;;;;;;1.65;1.25;;;5.30;91.00;;;;;;2079799;28;20029;-83
2021/03/17 04:09:47;;;;;;;2.13;1.40;;;5.30;91.00;;;;;;2082196;28;20071;-83
2021/03/17 04:10:57;;;;;;;2.20;1.30;;;5.30;91.00;;;;;;2077291;28;20034;-84
2021/03/17 04:12:00;;;;;;;1.98;1.48;;;5.30;91.00;;;;;;2082026;28;20041;-84
2021/03/17 04:13:05;;;;;;;1.80;1.40;;;5.30;91.00;;;;;;2080586;28;20029;-84
2021/03/17 04:14:08;;;;;;;1.40;1.15;;;5.30;91.00;;;;;;2073733;28;20040;-83
2021/03/17 04:15:13;;;;;;;1.80;1.33;;;5.30;91.00;;;;;;2073088;28;20108;-83
2021/03/17 04:16:15;;;;;;;1.80;1.40;;;5.30;91.00;;;;;;2073137;28;20033;-84
2021/03/17 04:17:30;;;;;;;1.67;1.38;;;5.40;91.00;;;;;;2065379;28;20050;-83
2021/03/17 04:18:34;;;;;;;2.03;1.55;;;5.30;91.00;;;;;;2066578;28;20019;-83
2021/03/17 04:19:37;;;;;;;1.85;1.30;;;5.40;91.00;;;;;;2074257;28;20180;-84
2021/03/17 04:20:42;;;;;;;1.70;1.33;;;5.30;91.00;;;;;;2080404;28;20025;-84
2021/03/17 04:21:44;;;;;;;2.20;1.52;;;5.40;91.00;;;;;;2080945;28;20496;-83
2021/03/17 04:22:47;;;;;;;1.75;1.40;;;5.40;91.00;;;;;;2069728;28;20026;-84
2021/03/17 04:23:50;;;;;;;1.70;1.30;;;5.40;91.00;;;;;;2067874;28;20492;-84
2021/03/17 04:24:53;;;;;;;1.88;1.27;;;5.40;91.10;;;;;;2065472;28;20029;-84
2021/03/17 04:25:55;;;;;;;2.25;1.55;;;5.40;91.10;;;;;;2065026;28;20117;-84
2021/03/17 04:26:57;;;;;;;2.00;1.33;;;5.40;91.10;;;;;;2065625;28;20449;-84
2021/03/17 04:27:58;;;;;;;1.88;1.35;;;5.40;91.10;;;;;;2073639;28;20528;-84
2021/03/17 04:29:01;;;;;;;1.90;1.45;;;5.40;91.10;;;;;;2076397;28;20063;-84
2021/03/17 04:30:04;;;;;;;1.90;1.50;;;5.40;91.10;;;;;;2073357;28;20037;-84
2021/03/17 04:31:06;;;;;;;1.85;1.50;;;5.40;91.10;;;;;;2066538;28;20050;-83
2021/03/17 04:32:09;;;;;;;2.53;1.70;;;5.40;91.10;;;;;;2072787;28;20026;-83
2021/03/17 04:33:11;;;;;;;1.85;1.58;;;5.40;91.10;;;;;;2064664;28;20121;-83
2021/03/17 04:34:13;;;;;;;1.88;1.42;;;5.40;91.10;;;;;;2066931;28;20022;-84
2021/03/17 04:35:16;;;;;;;2.17;1.52;;;5.40;91.10;;;;;;2065306;28;20018;-83
2021/03/17 04:36:18;;;;;;;1.88;1.45;;;5.40;91.10;;;;;;2072954;28;20085;-84
2021/03/17 04:37:19;;;;;;;1.80;1.50;;;5.50;91.10;;;;;;2080843;28;20028;-83
2021/03/17 04:38:21;;;;;;;4.05;1.60;;;5.40;91.10;;;;;;2064245;28;20063;-83
2021/03/17 04:39:22;;;;;;;2.13;1.50;;;5.40;91.10;;;;;;2056112;28;20046;-84
2021/03/17 04:40:24;;;;;;;2.20;1.60;;;5.40;91.10;;;;;;2073650;28;20084;-85
2021/03/17 04:41:26;;;;;;;2.00;1.60;;;5.40;91.10;;;;;;2080204;28;20038;-85
2021/03/17 04:42:27;;;;;;;2.53;1.40;;;5.40;91.10;;;;;;2071498;28;20018;-84
2021/03/17 04:43:28;;;;;;;2.35;1.45;;;5.40;91.10;;;;;;2065174;28;20045;-84
2021/03/17 04:44:30;;;;;;;2.05;1.50;;;5.40;91.10;;;;;;2073221;28;20030;-84
2021/03/17 04:45:31;;;;;;;2.25;1.60;;;5.50;91.20;;;;;;2081969;28;20029;-83
2021/03/17 04:46:35;;;;;;;2.50;1.73;;;5.50;91.20;;;;;;2073692;28;20030;-83
2021/03/17 04:47:41;;;;;;;2.50;1.80;;;5.50;91.20;;;;;;2061361;28;20026;-83
2021/03/17 04:48:43;;;;;;;2.13;1.38;;;5.50;91.20;;;;;;2066233;28;20078;-83
2021/03/17 04:49:45;;;;;;;2.83;1.60;;;5.50;91.10;;;;;;2072308;28;20026;-83
2021/03/17 04:50:48;;;;;;;1.90;1.50;;;5.50;91.10;;;;;;2073398;28;20038;-83
2021/03/17 04:51:49;;;;;;;2.15;1.65;;;5.50;91.10;;;;;;2073251;28;20026;-84
2021/03/17 04:52:50;;;;;;;1.90;1.50;;;5.40;91.10;;;;;;2072780;28;20026;-83
2021/03/17 04:53:51;;;;;;;2.10;1.38;;;5.50;91.10;;;;;;2064170;28;20026;-84
2021/03/17 04:54:53;;;;;;;2.05;1.52;;;5.50;91.10;;;;;;2049018;28;20031;-83
2021/03/17 04:55:53;;;;;;;2.47;1.75;;;5.50;91.20;;;;;;2059634;28;20524;-84
2021/03/17 04:56:55;;;;;;;1.92;1.60;;;5.50;91.10;;;;;;2070268;28;20030;-83
2021/03/17 04:57:58;;;;;;;1.83;1.42;;;5.50;91.20;;;;;;2072658;28;20084;-83
2021/03/17 04:59:01;;;;;;;2.00;1.60;;;5.40;91.10;;;;;;2068937;28;20467;-83
2021/03/17 05:00:06;;;;;;;1.95;1.40;;;5.50;91.20;;;;;;2073083;28;20018;-83
2021/03/17 05:01:11;;;;;;;2.38;1.40;;;5.40;91.20;;;;;;2080117;28;20065;-83
2021/03/17 05:02:16;;;;;;;2.50;1.73;;;5.40;91.20;;;;;;2071168;28;20038;-83
2021/03/17 05:03:21;;;;;;;2.45;1.60;;;5.50;91.20;;;;;;2073021;28;20026;-83
2021/03/17 05:04:22;;;;;;;1.80;1.42;;;5.40;91.20;;;;;;2061541;28;20034;-83
2021/03/17 05:05:23;;;;;;;2.13;1.50;;;5.40;91.20;;;;;;2065105;28;20022;-83
2021/03/17 05:06:24;;;;;;;1.85;1.48;;;5.40;91.20;;;;;;2066697;28;20058;-83
2021/03/17 05:07:27;;;;;;;1.70;1.40;;;5.40;91.20;;;;;;2064423;28;20049;-83
2021/03/17 05:08:29;;;;;;;2.38;1.40;;;5.40;91.20;;;;;;2062258;28;20401;-83
2021/03/17 05:09:30;;;;;;;1.90;1.40;;;5.40;91.20;;;;;;2061859;28;20030;-83
2021/03/17 05:10:31;;;;;;;2.90;1.83;;;5.40;91.30;;;;;;2064657;28;20034;-83
2021/03/17 05:11:34;;;;;;;2.20;1.63;;;5.40;91.30;;;;;;2064585;28;20509;-83
2021/03/17 05:12:37;;;;;;;2.13;1.45;;;5.40;91.30;;;;;;2072621;28;20113;-83
2021/03/17 05:13:39;;;;;;;2.55;1.58;;;5.40;91.30;;;;;;2067188;28;20093;-84
2021/03/17 05:14:40;;;;;;;3.03;1.52;;;5.40;91.30;;;;;;2065134;28;20019;-83
2021/03/17 05:15:42;;;;;;;1.70;1.38;;;5.40;91.30;;;;;;2051646;28;20024;-83
2021/03/17 05:16:44;;;;;;;2.20;1.60;;;5.40;91.30;;;;;;2064297;28;20030;-84
2021/03/17 05:17:47;;;;;;;2.53;1.52;;;5.40;91.30;;;;;;2064974;28;20383;-84
2021/03/17 05:18:49;;;;;;;2.25;1.38;;;5.40;91.30;;;;;;2065109;28;20026;-83
2021/03/17 05:19:51;;;;;;;2.50;1.50;;;5.40;91.30;;;;;;2073375;28;20022;-84
2021/03/17 05:20:52;;;;;;;2.05;1.60;;;5.40;91.30;;;;;;2072256;28;20037;-84
2021/03/17 05:21:55;;;;;;;1.83;1.50;;;5.40;91.30;;;;;;2058707;28;20034;-83
2021/03/17 05:22:57;;;;;;;2.33;1.70;;;5.40;91.30;;;;;;2064344;28;20106;-84
2021/03/17 05:23:58;;;;;;;2.40;1.88;;;5.40;91.30;;;;;;2057040;28;20030;-83
2021/03/17 05:24:59;;;;;;;2.60;1.67;;;5.40;91.30;;;;;;2064655;28;20296;-83
2021/03/17 05:26:00;;;;;;;2.47;1.58;;;5.40;91.60;;;;;;2064848;28;20026;-84
2021/03/17 05:27:05;;;;;;;2.40;1.67;;;5.40;91.30;;;;;;2072765;28;20061;-84
2021/03/17 05:28:06;;;;;;;2.97;1.42;;;5.40;91.30;;;;;;2081090;28;20025;-84
2021/03/17 05:29:08;;;;;;;1.55;1.23;;;5.40;91.30;;;;;;2072029;28;20124;-83
2021/03/17 05:30:11;;;;;;;1.90;1.38;;;5.40;91.30;;;;;;2064708;28;20153;-84
2021/03/17 05:31:12;;;;;;;1.90;1.40;;;5.40;91.30;;;;;;2063268;28;20060;-83
2021/03/17 05:32:14;;;;;;;1.80;1.50;;;5.40;91.30;;;;;;2064205;28;20523;-84
2021/03/17 05:33:17;;;;;;;1.80;1.40;;;5.40;91.30;;;;;;2056654;28;20500;-83
2021/03/17 05:34:18;;;;;;;2.00;1.50;;;5.40;91.30;;;;;;2061198;28;20162;-83
2021/03/17 05:35:18;;;;;;;2.40;1.63;;;5.40;91.30;;;;;;2064819;28;20049;-83
2021/03/17 05:36:19;;;;;;;2.58;1.80;;;5.40;91.30;;;;;;2057002;28;20385;-84